Terminal Aerodrome Forecast
Issued by NWS New Orleans/Baton Rouge, LA

Home | Current Version | Previous Version | Text Only | Print | Product List | Glossary On
Versions: 1 2 3 4 5 6 7 8 9 10 11 12 13 14 15 16 17 18 19 20 21
000
FTUS44 KLIX 281700 RRA
TAFNEW
TAF
KNEW 281739Z 2818/2918 27011KT P6SM FEW030 BKN040
      TEMPO 2821/2824 VRB15G25KT 3SM -TSRA BKN035CB
     FM290300 31011KT P6SM BKN040
     FM291500 36008KT P6SM SCT250=

USA.gov is the U.S. government's official web portal to all federal, state and local government web resources and services.